Time;durP1;ratioP1;P1;durP2;ratioP2;P2;SDS_P1;SDS_P2;PMS_P1;PMS_P2;Temp;Humidity;BMP_temperature;BMP_pressure;BME280_temperature;BME280_humidity;BME280_pressure;Samples;Min_cycle;Max_cycle;Signal;HPM_P1;HPM_P2
2023/10/08 00:02:26;;;;;;;5.30;4.80;;;18.20;99.90;;;;;;5105351;28;20425;-65
2023/10/08 00:04:54;;;;;;;5.47;4.37;;;18.30;99.90;;;;;;5103245;28;20521;-65
2023/10/08 00:07:27;;;;;;;5.20;4.00;;;18.20;99.90;;;;;;5103259;28;20429;-68
2023/10/08 00:09:53;;;;;;;5.30;4.30;;;18.20;99.90;;;;;;5089108;28;20440;-64
2023/10/08 00:12:19;;;;;;;7.00;4.80;;;18.20;99.90;;;;;;5102017;28;20821;-69
2023/10/08 00:14:49;;;;;;;6.63;4.27;;;18.20;99.90;;;;;;5104165;28;20268;-65
2023/10/08 00:17:17;;;;;;;6.60;4.73;;;18.20;99.90;;;;;;5103752;28;20425;-64
2023/10/08 00:19:43;;;;;;;6.97;4.40;;;18.20;99.90;;;;;;5103444;28;20430;-63
2023/10/08 00:22:13;;;;;;;6.57;4.90;;;18.10;99.90;;;;;;5103501;28;20844;-62
2023/10/08 00:24:42;;;;;;;7.50;4.57;;;18.20;99.90;;;;;;5103802;28;20426;-64
2023/10/08 00:27:08;;;;;;;5.83;4.23;;;18.20;99.90;;;;;;5096114;28;20417;-65
2023/10/08 00:29:39;;;;;;;7.17;4.67;;;18.10;99.90;;;;;;5103873;28;20425;-65
2023/10/08 00:32:11;;;;;;;5.97;4.07;;;18.10;99.90;;;;;;5103558;28;20469;-64
2023/10/08 00:34:41;;;;;;;7.53;4.30;;;18.00;99.90;;;;;;5102017;28;20783;-64
2023/10/08 00:37:13;;;;;;;9.37;4.90;;;18.10;99.90;;;;;;5096416;28;20421;-63
2023/10/08 00:39:40;;;;;;;6.93;4.00;;;18.10;99.90;;;;;;5103869;28;20429;-65
2023/10/08 00:42:07;;;;;;;8.73;5.00;;;18.00;99.90;;;;;;5103221;28;20765;-65
2023/10/08 00:44:38;;;;;;;6.10;3.87;;;18.00;99.90;;;;;;5102093;28;20793;-64
2023/10/08 00:47:05;;;;;;;7.00;5.53;;;18.00;99.90;;;;;;5103861;28;20512;-64
2023/10/08 00:52:26;;;;;;;6.77;4.30;;;18.00;99.90;;;;;;5103429;28;20418;-64
2023/10/08 00:57:34;;;;;;;7.07;4.83;;;18.00;99.90;;;;;;5103435;28;20418;-65
2023/10/08 01:00:00;;;;;;;5.40;3.97;;;18.00;99.90;;;;;;5103835;28;20422;-64
2023/10/08 01:02:42;;;;;;;6.73;4.80;;;18.10;99.90;;;;;;5103009;28;20429;-63
2023/10/08 01:05:10;;;;;;;7.07;5.00;;;18.00;99.90;;;;;;5102840;28;20426;-64
2023/10/08 01:07:36;;;;;;;7.00;4.30;;;18.00;99.90;;;;;;5103042;28;20424;-63
2023/10/08 01:10:10;;;;;;;8.13;4.17;;;17.90;99.90;;;;;;5103257;28;20414;-63
2023/10/08 01:12:44;;;;;;;7.30;4.93;;;17.90;99.90;;;;;;5103432;28;21261;-64
2023/10/08 01:15:19;;;;;;;5.83;4.80;;;17.90;99.90;;;;;;5099380;28;20449;-64
2023/10/08 01:17:57;;;;;;;6.97;4.57;;;17.90;99.90;;;;;;5102739;28;20439;-64
2023/10/08 01:23:03;;;;;;;6.33;4.30;;;17.90;99.90;;;;;;5096891;28;20443;-62
2023/10/08 01:25:29;;;;;;;6.10;4.37;;;17.90;99.90;;;;;;5101964;28;20828;-64
2023/10/08 01:28:08;;;;;;;6.73;5.00;;;17.90;99.90;;;;;;5104330;28;20417;-64
2023/10/08 01:30:41;;;;;;;8.60;5.00;;;17.80;99.90;;;;;;5101262;28;20429;-63
2023/10/08 01:33:11;;;;;;;6.10;4.43;;;17.90;99.90;;;;;;5102270;28;20426;-63
2023/10/08 01:35:37;;;;;;;5.97;4.37;;;17.80;99.90;;;;;;5076801;28;20473;-64
2023/10/08 01:38:03;;;;;;;6.70;4.47;;;17.90;99.90;;;;;;5102036;28;20429;-62
2023/10/08 01:40:30;;;;;;;5.40;4.40;;;17.80;99.90;;;;;;5100729;28;20760;-63
2023/10/08 01:43:04;;;;;;;8.53;4.97;;;17.80;99.90;;;;;;5103853;28;20776;-63
2023/10/08 01:45:30;;;;;;;6.50;4.40;;;17.80;99.90;;;;;;5093785;28;20433;-62
2023/10/08 01:47:56;;;;;;;6.73;5.53;;;17.80;99.90;;;;;;5102319;28;20429;-64
2023/10/08 01:50:24;;;;;;;6.43;5.00;;;17.80;99.90;;;;;;5100719;28;20484;-64
2023/10/08 01:52:53;;;;;;;7.60;4.50;;;17.80;99.90;;;;;;5096946;28;20414;-65
2023/10/08 01:55:19;;;;;;;5.03;4.50;;;17.80;99.90;;;;;;5101709;28;20839;-65
2023/10/08 01:57:45;;;;;;;7.63;5.40;;;17.80;99.90;;;;;;5101929;28;20464;-64
2023/10/08 02:00:14;;;;;;;7.73;5.37;;;17.80;99.90;;;;;;5100277;28;20450;-64
2023/10/08 02:02:40;;;;;;;6.30;4.57;;;17.80;99.90;;;;;;5101677;28;20421;-64
2023/10/08 02:05:07;;;;;;;6.17;4.90;;;17.80;99.90;;;;;;5098798;28;20923;-64
2023/10/08 02:07:33;;;;;;;7.70;6.20;;;17.70;99.90;;;;;;5100256;28;20447;-64
2023/10/08 02:09:59;;;;;;;5.63;4.80;;;17.70;99.90;;;;;;5096807;28;20567;-63
2023/10/08 02:12:25;;;;;;;7.60;5.17;;;17.70;99.90;;;;;;5098971;28;20930;-64
2023/10/08 02:14:51;;;;;;;12.60;5.33;;;17.70;99.90;;;;;;5101670;28;20574;-64
2023/10/08 02:17:17;;;;;;;7.60;5.60;;;17.70;99.90;;;;;;5102180;28;20191;-64
2023/10/08 02:19:43;;;;;;;8.13;5.73;;;17.70;99.90;;;;;;5101211;28;20177;-64
2023/10/08 02:22:12;;;;;;;8.23;5.30;;;17.60;99.90;;;;;;5100631;28;20484;-64
2023/10/08 02:24:38;;;;;;;7.70;5.10;;;17.70;99.90;;;;;;5101222;28;20270;-64
2023/10/08 02:27:03;;;;;;;6.70;4.93;;;17.70;99.90;;;;;;5101088;28;20422;-64
2023/10/08 02:29:30;;;;;;;6.43;4.80;;;17.70;99.90;;;;;;5094729;28;20957;-64
2023/10/08 02:31:56;;;;;;;10.20;4.80;;;17.60;99.90;;;;;;5101489;28;20183;-64
2023/10/08 02:34:23;;;;;;;8.60;4.70;;;17.70;99.90;;;;;;5101139;28;20460;-64
2023/10/08 02:36:48;;;;;;;6.80;4.30;;;17.60;99.90;;;;;;5101253;28;20963;-64
2023/10/08 02:39:16;;;;;;;6.63;4.53;;;17.70;99.90;;;;;;5084318;28;20437;-64
2023/10/08 02:41:45;;;;;;;8.60;5.20;;;17.70;99.90;;;;;;5081854;28;20236;-64
2023/10/08 02:44:12;;;;;;;8.73;4.40;;;17.70;99.90;;;;;;5102643;28;21002;-64
2023/10/08 02:46:42;;;;;;;11.60;5.23;;;17.70;99.90;;;;;;5098049;28;20450;-63
2023/10/08 02:49:12;;;;;;;7.63;5.10;;;17.70;99.90;;;;;;5100631;28;20437;-64
2023/10/08 02:51:40;;;;;;;8.60;4.60;;;17.70;99.90;;;;;;5099201;28;20427;-64
2023/10/08 02:54:16;;;;;;;5.67;4.40;;;17.60;99.90;;;;;;5083798;28;20429;-64
2023/10/08 02:56:55;;;;;;;8.80;5.60;;;17.60;99.90;;;;;;5100094;28;20461;-64
2023/10/08 02:59:22;;;;;;;14.33;5.60;;;17.50;99.90;;;;;;5099732;28;20837;-64
2023/10/08 03:01:55;;;;;;;6.40;4.90;;;17.50;99.90;;;;;;5101115;28;20424;-64
2023/10/08 03:04:22;;;;;;;7.07;5.20;;;17.40;99.90;;;;;;5101084;28;20544;-63
2023/10/08 03:06:52;;;;;;;9.13;5.50;;;17.40;99.90;;;;;;5100951;28;20522;-64
2023/10/08 03:09:24;;;;;;;10.87;5.20;;;17.40;99.90;;;;;;5099873;28;20445;-64
2023/10/08 03:11:51;;;;;;;11.13;6.00;;;17.40;99.90;;;;;;5101043;28;20421;-64
2023/10/08 03:14:23;;;;;;;9.13;5.60;;;17.50;99.90;;;;;;5099288;28;21020;-64
2023/10/08 03:16:51;;;;;;;7.60;5.13;;;17.40;99.90;;;;;;5104587;28;20973;-64
2023/10/08 03:19:19;;;;;;;6.63;5.47;;;17.40;99.90;;;;;;5104490;28;20437;-64
2023/10/08 03:21:55;;;;;;;6.30;4.53;;;17.40;99.90;;;;;;5088630;28;20429;-64
2023/10/08 03:27:06;;;;;;;11.73;5.70;;;17.50;99.90;;;;;;5104413;28;20413;-64
2023/10/08 03:29:40;;;;;;;6.23;5.00;;;17.40;99.90;;;;;;5104955;28;20425;-64
2023/10/08 03:32:06;;;;;;;6.00;4.63;;;17.40;99.90;;;;;;5104084;28;20897;-64
2023/10/08 03:34:34;;;;;;;10.03;5.50;;;17.40;99.90;;;;;;5104643;28;20433;-64
2023/10/08 03:37:05;;;;;;;9.63;5.53;;;17.40;99.90;;;;;;5103750;28;20433;-64
2023/10/08 03:42:25;;;;;;;7.73;4.97;;;17.30;99.90;;;;;;5101838;28;20437;-64
2023/10/08 03:44:52;;;;;;;10.47;5.90;;;17.30;99.90;;;;;;5104547;28;20433;-64
2023/10/08 03:47:23;;;;;;;6.90;4.97;;;17.20;99.90;;;;;;5102289;28;20473;-64
2023/10/08 03:49:53;;;;;;;8.40;4.93;;;17.30;99.90;;;;;;5104269;28;20451;-64
2023/10/08 03:52:25;;;;;;;10.63;5.83;;;17.20;99.90;;;;;;5104689;28;20597;-65
2023/10/08 03:57:41;;;;;;;8.33;4.50;;;17.20;99.90;;;;;;5104107;28;20433;-64
2023/10/08 04:00:28;;;;;;;10.03;4.90;;;17.20;99.90;;;;;;5103739;28;20432;-64
2023/10/08 04:02:55;;;;;;;12.33;5.47;;;17.20;99.90;;;;;;5102700;28;20524;-62
2023/10/08 04:05:27;;;;;;;5.80;5.00;;;17.10;99.90;;;;;;5086581;28;20491;-64
2023/10/08 04:13:08;;;;;;;6.97;5.13;;;17.10;99.90;;;;;;5096928;28;20500;-65
2023/10/08 04:15:40;;;;;;;6.47;5.00;;;17.10;99.90;;;;;;5103459;28;20465;-64
2023/10/08 04:18:10;;;;;;;13.73;7.17;;;17.10;99.90;;;;;;5101677;28;20429;-64
2023/10/08 04:20:38;;;;;;;7.77;5.60;;;17.00;99.90;;;;;;5102105;28;20503;-64
2023/10/08 04:23:13;;;;;;;7.40;5.10;;;17.00;99.90;;;;;;5102940;28;20801;-65
2023/10/08 04:25:41;;;;;;;9.43;5.00;;;17.00;99.90;;;;;;5101956;28;20571;-64
2023/10/08 04:28:13;;;;;;;9.27;6.30;;;17.00;99.90;;;;;;5102198;28;20443;-64
2023/10/08 04:30:41;;;;;;;9.00;5.63;;;17.00;99.90;;;;;;5101744;28;20843;-64
2023/10/08 04:33:14;;;;;;;7.23;6.07;;;17.00;99.90;;;;;;5102817;28;20441;-64
2023/10/08 04:35:55;;;;;;;;;;;;;;;;;;;;;
2023/10/08 04:38:18;;;;;;;11.00;5.63;;;17.00;99.90;;;;;;5104238;28;20429;-63
2023/10/08 04:40:48;;;;;;;9.53;5.20;;;17.00;99.90;;;;;;5103756;28;20848;-64
2023/10/08 04:43:24;;;;;;;10.20;5.60;;;17.00;99.90;;;;;;5102881;28;20874;-64
2023/10/08 04:45:51;;;;;;;8.43;5.87;;;17.00;99.90;;;;;;5101745;28;20421;-64
2023/10/08 04:48:20;;;;;;;8.70;5.37;;;17.00;99.90;;;;;;5102650;28;20422;-64
2023/10/08 04:50:58;;;;;;;10.13;5.50;;;16.90;99.90;;;;;;5104311;28;20455;-64
2023/10/08 04:53:37;;;;;;;9.20;5.60;;;16.90;99.90;;;;;;5099961;28;20437;-63
2023/10/08 04:56:13;;;;;;;7.60;5.10;;;16.90;99.90;;;;;;5099526;28;20496;-63
2023/10/08 04:58:40;;;;;;;9.70;5.60;;;16.90;99.90;;;;;;5103319;28;21312;-64
2023/10/08 05:14:55;;;;;;;11.43;5.47;;;16.90;99.90;;;;;;5102331;28;20426;-64
2023/10/08 05:17:10;;;;;;;8.23;5.27;;;16.90;99.90;;;;;;5103168;28;20440;-63
2023/10/08 05:22:18;;;;;;;8.80;5.07;;;16.90;99.90;;;;;;5101444;28;20453;-64
2023/10/08 05:25:06;;;;;;;9.83;5.20;;;16.80;99.90;;;;;;5103491;28;20429;-63
2023/10/08 05:30:25;;;;;;;8.60;5.80;;;16.90;99.90;;;;;;5092722;28;20488;-63
2023/10/08 05:38:16;;;;;;;10.37;5.40;;;16.80;99.90;;;;;;5100950;28;20429;-63
2023/10/08 05:51:56;;;;;;;9.53;6.03;;;16.70;99.90;;;;;;5100680;28;20442;-63
2023/10/08 05:57:14;;;;;;;10.03;5.77;;;16.50;99.90;;;;;;5090430;28;20473;-63
2023/10/08 06:13:29;;;;;;;9.33;5.23;;;16.50;99.90;;;;;;5094881;28;20429;-64
2023/10/08 06:18:27;;;;;;;11.77;5.40;;;16.60;99.90;;;;;;5102194;28;20425;-63
2023/10/08 06:21:08;;;;;;;11.50;5.33;;;16.60;99.90;;;;;;5098908;28;21020;-63
2023/10/08 06:23:36;;;;;;;9.43;6.10;;;16.60;99.90;;;;;;5101151;28;21041;-64
2023/10/08 06:28:36;;;;;;;11.83;5.60;;;16.60;99.90;;;;;;5101137;28;20437;-64
2023/10/08 06:31:06;;;;;;;8.33;5.53;;;16.50;99.90;;;;;;5098973;28;20422;-63
2023/10/08 06:33:36;;;;;;;9.83;5.60;;;16.50;99.90;;;;;;5101361;28;20429;-64
2023/10/08 06:36:13;;;;;;;7.40;5.67;;;16.50;99.90;;;;;;5100485;28;20461;-64
2023/10/08 06:38:44;;;;;;;9.90;5.23;;;16.50;99.90;;;;;;5099929;28;20456;-63
2023/10/08 06:43:47;;;;;;;8.53;5.73;;;16.50;99.90;;;;;;5100997;28;20951;-64
2023/10/08 06:46:13;;;;;;;9.53;6.63;;;16.50;99.90;;;;;;5102809;28;20437;-64
2023/10/08 06:48:43;;;;;;;9.33;5.93;;;16.50;99.90;;;;;;5099311;28;20438;-63
2023/10/08 06:51:17;;;;;;;9.43;6.83;;;16.50;99.90;;;;;;5104425;28;20424;-64
2023/10/08 06:53:46;;;;;;;9.67;5.73;;;16.50;99.90;;;;;;5106627;28;20870;-63
2023/10/08 06:56:13;;;;;;;9.27;5.30;;;16.60;99.90;;;;;;5097940;28;21650;-64
2023/10/08 06:58:42;;;;;;;10.93;5.60;;;16.50;99.90;;;;;;5106366;28;20429;-63
2023/10/08 07:01:13;;;;;;;10.87;5.80;;;16.50;99.90;;;;;;5106332;28;20462;-63
2023/10/08 07:03:38;;;;;;;8.40;5.50;;;16.50;99.90;;;;;;5106242;28;20434;-64
2023/10/08 07:06:16;;;;;;;7.77;5.17;;;16.50;99.90;;;;;;5105947;28;20479;-64
2023/10/08 07:08:46;;;;;;;10.93;5.77;;;16.50;99.90;;;;;;5107275;28;20175;-63
2023/10/08 07:11:13;;;;;;;10.10;5.80;;;16.50;99.90;;;;;;5107715;27;20846;-65
2023/10/08 07:13:42;;;;;;;10.63;5.20;;;16.50;99.90;;;;;;5108028;28;20417;-64
2023/10/08 07:16:11;;;;;;;8.70;5.43;;;16.50;99.90;;;;;;5102649;28;20489;-64
2023/10/08 07:18:41;;;;;;;8.97;5.67;;;16.50;99.90;;;;;;5108489;28;21304;-64
2023/10/08 07:21:13;;;;;;;6.70;5.00;;;16.50;99.90;;;;;;5108000;28;20422;-64
2023/10/08 07:23:56;;;;;;;10.00;6.47;;;16.50;99.90;;;;;;5108814;28;20489;-63
2023/10/08 07:26:24;;;;;;;7.80;4.93;;;16.50;99.90;;;;;;5109079;28;21227;-62
2023/10/08 07:28:51;;;;;;;9.87;6.27;;;16.50;99.90;;;;;;5107565;28;20439;-63
2023/10/08 07:31:24;;;;;;;12.23;7.90;;;16.60;99.90;;;;;;5108750;28;20786;-63
2023/10/08 07:33:58;;;;;;;15.47;7.37;;;16.50;99.90;;;;;;5104877;28;20448;-65
2023/10/08 07:36:29;;;;;;;14.30;8.00;;;16.50;99.90;;;;;;5108540;28;20525;-64
2023/10/08 07:38:54;;;;;;;13.83;8.33;;;16.50;99.90;;;;;;5100138;28;20425;-63
2023/10/08 07:41:20;;;;;;;11.43;7.90;;;16.50;99.90;;;;;;5108290;28;20483;-63
2023/10/08 07:43:55;;;;;;;9.70;6.80;;;16.50;99.90;;;;;;5108726;28;20298;-64
2023/10/08 07:46:30;;;;;;;11.10;7.20;;;16.40;99.90;;;;;;5106501;28;20171;-63
2023/10/08 07:48:58;;;;;;;15.17;9.10;;;16.40;99.90;;;;;;5090592;28;21018;-63
2023/10/08 07:51:24;;;;;;;12.80;7.73;;;16.40;99.90;;;;;;5107728;28;21102;-64
2023/10/08 07:53:55;;;;;;;13.73;9.23;;;16.50;99.90;;;;;;5108164;28;20437;-63
2023/10/08 07:56:22;;;;;;;12.37;8.13;;;16.50;99.90;;;;;;5108237;28;20514;-64
2023/10/08 07:58:48;;;;;;;14.10;9.33;;;16.50;99.90;;;;;;5106493;28;20523;-63
2023/10/08 08:01:14;;;;;;;9.80;8.40;;;16.50;99.90;;;;;;5107366;28;20429;-63
2023/10/08 08:03:41;;;;;;;7.97;7.17;;;16.50;99.90;;;;;;5104620;28;20426;-62
2023/10/08 08:06:09;;;;;;;7.87;7.17;;;16.40;99.90;;;;;;5104221;28;20785;-63
2023/10/08 08:08:38;;;;;;;13.77;10.10;;;16.40;99.90;;;;;;5102330;28;20483;-63
2023/10/08 08:11:11;;;;;;;18.40;15.13;;;16.30;99.90;;;;;;5103445;28;20429;-63
2023/10/08 08:13:44;;;;;;;20.60;17.73;;;16.30;99.90;;;;;;5085986;28;20890;-62
2023/10/08 08:16:16;;;;;;;17.40;15.50;;;16.30;99.90;;;;;;5103612;28;20484;-63
2023/10/08 08:19:00;;;;;;;18.13;14.30;;;16.20;99.90;;;;;;5102191;28;20932;-63
2023/10/08 08:21:26;;;;;;;15.33;11.30;;;16.00;99.90;;;;;;5104272;28;20541;-64
2023/10/08 08:23:52;;;;;;;13.87;8.80;;;15.90;99.90;;;;;;5104867;28;20430;-64
2023/10/08 08:26:29;;;;;;;12.27;7.90;;;15.90;99.90;;;;;;5101319;28;20422;-64
2023/10/08 08:29:02;;;;;;;11.43;6.00;;;15.80;99.90;;;;;;5101722;28;20439;-64
2023/10/08 08:31:32;;;;;;;8.60;6.93;;;15.70;99.90;;;;;;5103456;28;20433;-64
2023/10/08 08:34:02;;;;;;;7.60;5.50;;;15.70;99.90;;;;;;5100907;28;20505;-63
2023/10/08 08:36:31;;;;;;;7.50;5.80;;;15.60;99.90;;;;;;5103021;28;20473;-64
2023/10/08 08:38:57;;;;;;;6.07;4.93;;;15.50;99.90;;;;;;5104920;28;20434;-64
2023/10/08 08:41:24;;;;;;;6.70;5.20;;;15.50;99.90;;;;;;5084649;28;20851;-63
2023/10/08 08:43:58;;;;;;;7.03;4.90;;;15.40;99.90;;;;;;5100758;28;20495;-64
2023/10/08 08:46:31;;;;;;;4.70;3.47;;;15.40;99.90;;;;;;5103306;28;20490;-64
2023/10/08 08:49:03;;;;;;;5.37;3.80;;;15.40;99.90;;;;;;5094824;28;20429;-63
2023/10/08 08:51:29;;;;;;;5.20;4.03;;;15.40;99.90;;;;;;5101214;28;20460;-63
2023/10/08 08:53:55;;;;;;;9.53;4.30;;;15.50;99.90;;;;;;5104706;28;20418;-63
2023/10/08 08:56:22;;;;;;;6.33;4.00;;;15.50;99.90;;;;;;5103602;28;20480;-64
2023/10/08 08:58:49;;;;;;;6.67;4.30;;;15.50;99.90;;;;;;5103421;28;20421;-64
2023/10/08 09:01:17;;;;;;;7.70;4.27;;;15.50;99.90;;;;;;5103068;28;20426;-63
2023/10/08 09:03:45;;;;;;;7.40;3.40;;;15.50;99.90;;;;;;5102945;28;20461;-63
2023/10/08 09:06:11;;;;;;;8.97;3.10;;;15.50;99.90;;;;;;5102636;28;20430;-64
2023/10/08 09:08:41;;;;;;;4.43;3.17;;;15.60;99.90;;;;;;5100811;28;21036;-64
2023/10/08 09:11:08;;;;;;;3.67;3.30;;;15.60;99.90;;;;;;5103009;28;20289;-63
2023/10/08 09:13:35;;;;;;;5.50;2.80;;;15.60;99.90;;;;;;5102658;28;20446;-63
2023/10/08 09:16:11;;;;;;;4.10;2.90;;;15.50;99.90;;;;;;5100474;28;20469;-64
2023/10/08 09:18:36;;;;;;;4.10;2.60;;;15.50;99.90;;;;;;5102003;28;20940;-63
2023/10/08 09:21:22;;;;;;;6.00;2.57;;;15.50;99.90;;;;;;5100283;28;21263;-63
2023/10/08 09:23:51;;;;;;;4.13;2.40;;;15.50;99.90;;;;;;5101704;28;20184;-64
2023/10/08 09:26:19;;;;;;;3.03;2.23;;;15.50;99.90;;;;;;5102116;28;20421;-64
2023/10/08 09:28:51;;;;;;;2.10;1.77;;;15.50;99.90;;;;;;5101888;28;20835;-64
2023/10/08 09:31:17;;;;;;;2.30;1.80;;;15.40;99.90;;;;;;5102518;28;20789;-64
2023/10/08 09:33:53;;;;;;;2.30;1.80;;;15.40;99.90;;;;;;5100059;28;20433;-63
2023/10/08 09:36:19;;;;;;;1.97;1.67;;;15.40;99.90;;;;;;5102209;28;20806;-64
2023/10/08 09:38:49;;;;;;;3.60;1.50;;;15.50;99.90;;;;;;5101861;28;20430;-64
2023/10/08 09:41:16;;;;;;;1.73;1.40;;;15.30;99.90;;;;;;5101779;28;20465;-64
2023/10/08 09:43:42;;;;;;;1.57;1.03;;;15.30;99.90;;;;;;5099568;28;20784;-63
2023/10/08 09:46:23;;;;;;;1.80;0.70;;;15.40;99.90;;;;;;5101878;28;20525;-64
2023/10/08 09:48:53;;;;;;;1.70;0.47;;;15.40;99.90;;;;;;5101120;28;20465;-64
2023/10/08 09:51:20;;;;;;;0.67;0.50;;;15.30;99.90;;;;;;5101510;28;20445;-64
2023/10/08 09:54:04;;;;;;;1.37;0.60;;;15.40;99.90;;;;;;5102306;28;21248;-64
2023/10/08 09:56:32;;;;;;;0.70;0.60;;;15.30;99.90;;;;;;5099841;28;20473;-64
2023/10/08 09:58:59;;;;;;;0.70;0.50;;;15.20;99.90;;;;;;5101155;28;20832;-64
2023/10/08 10:01:26;;;;;;;1.77;0.70;;;15.20;99.90;;;;;;5100425;28;20430;-63
2023/10/08 10:03:52;;;;;;;0.73;0.70;;;15.30;99.90;;;;;;5102604;28;20437;-64
2023/10/08 10:06:18;;;;;;;0.70;0.70;;;15.30;99.90;;;;;;5100979;28;20430;-64
2023/10/08 10:08:45;;;;;;;1.50;1.10;;;15.40;99.90;;;;;;5100167;28;20598;-63
2023/10/08 10:11:11;;;;;;;2.10;0.90;;;15.40;99.90;;;;;;5101213;28;20432;-63
2023/10/08 10:13:44;;;;;;;1.97;1.07;;;15.40;99.90;;;;;;5100988;28;20430;-64
2023/10/08 10:16:18;;;;;;;1.00;0.90;;;15.40;99.90;;;;;;5097757;28;20469;-64
2023/10/08 10:18:48;;;;;;;1.10;1.00;;;15.40;99.90;;;;;;5100552;28;20429;-64
2023/10/08 10:21:14;;;;;;;2.90;1.00;;;15.30;99.90;;;;;;5099557;28;20492;-64
2023/10/08 10:23:44;;;;;;;1.83;0.90;;;15.30;99.90;;;;;;5100467;28;20528;-63
2023/10/08 10:26:35;;;;;;;1.10;0.80;;;15.30;99.90;;;;;;5100454;28;20844;-64
2023/10/08 10:29:15;;;;;;;1.70;1.00;;;15.30;99.90;;;;;;5083756;28;21087;-63
2023/10/08 10:31:44;;;;;;;1.40;1.10;;;15.30;99.90;;;;;;5098610;28;20436;-63
2023/10/08 10:34:12;;;;;;;1.63;1.17;;;15.30;99.90;;;;;;5098838;28;20951;-63
2023/10/08 10:36:39;;;;;;;2.10;1.30;;;15.20;99.90;;;;;;5099994;28;20596;-63
2023/10/08 10:39:15;;;;;;;2.47;1.10;;;15.30;99.90;;;;;;5101436;28;20490;-63
2023/10/08 10:41:51;;;;;;;2.60;1.13;;;15.30;99.90;;;;;;5098837;28;20519;-63
2023/10/08 10:44:17;;;;;;;2.70;1.20;;;15.30;99.90;;;;;;5100655;28;20435;-63
2023/10/08 10:47:18;;;;;;;2.70;1.20;;;15.30;99.90;;;;;;5099844;28;20517;-63
2023/10/08 10:49:36;;;;;;;1.50;1.00;;;15.30;99.90;;;;;;5099509;28;20453;-63
2023/10/08 10:52:05;;;;;;;0.90;0.83;;;15.20;99.90;;;;;;5100901;28;20440;-63
2023/10/08 10:54:36;;;;;;;1.70;1.00;;;15.20;99.90;;;;;;5098349;28;20927;-64
2023/10/08 10:57:17;;;;;;;1.30;0.80;;;15.30;99.90;;;;;;5100646;28;20992;-64
2023/10/08 10:59:52;;;;;;;0.80;0.60;;;15.30;99.90;;;;;;5084217;28;20580;-63
2023/10/08 11:02:31;;;;;;;1.73;0.77;;;15.30;99.90;;;;;;5102726;28;20443;-63
2023/10/08 11:05:07;;;;;;;4.73;1.93;;;15.30;99.90;;;;;;5103001;28;20740;-63
2023/10/08 11:07:34;;;;;;;1.20;0.80;;;15.40;99.90;;;;;;5098515;28;20437;-63
2023/10/08 11:10:00;;;;;;;4.30;1.00;;;15.40;99.90;;;;;;5100709;28;21198;-63
2023/10/08 11:12:42;;;;;;;0.90;0.70;;;15.40;99.90;;;;;;5101209;28;20824;-63
2023/10/08 11:15:16;;;;;;;1.17;0.60;;;15.40;99.90;;;;;;5101058;28;20453;-63
2023/10/08 11:17:44;;;;;;;1.50;0.83;;;15.40;99.90;;;;;;5098367;28;20425;-64
2023/10/08 11:20:29;;;;;;;3.10;0.80;;;15.40;99.90;;;;;;5100550;28;20433;-64
2023/10/08 11:22:55;;;;;;;1.63;0.93;;;15.40;99.90;;;;;;5098622;28;21326;-64
2023/10/08 11:25:27;;;;;;;2.70;0.90;;;15.50;99.90;;;;;;5100558;28;20877;-63
2023/10/08 11:28:01;;;;;;;1.20;0.53;;;15.50;99.90;;;;;;5099944;28;20333;-64
2023/10/08 11:30:31;;;;;;;2.17;1.00;;;15.50;99.90;;;;;;5098683;28;20440;-64
2023/10/08 11:33:00;;;;;;;2.90;1.00;;;15.60;99.90;;;;;;5094504;28;20460;-63
2023/10/08 11:35:33;;;;;;;0.77;0.63;;;15.60;99.90;;;;;;5098496;28;20469;-63
2023/10/08 11:38:03;;;;;;;1.50;0.67;;;15.70;99.90;;;;;;5098108;28;20527;-64
2023/10/08 11:40:29;;;;;;;4.07;0.70;;;15.80;99.90;;;;;;5102292;28;20438;-64
2023/10/08 11:42:58;;;;;;;2.67;0.90;;;15.80;99.90;;;;;;5098063;28;20422;-63
2023/10/08 11:45:28;;;;;;;1.83;0.87;;;15.80;99.90;;;;;;5106417;28;20192;-64
2023/10/08 11:47:57;;;;;;;1.43;0.83;;;15.80;99.90;;;;;;5105837;28;20432;-63
2023/10/08 11:50:30;;;;;;;3.53;1.00;;;15.80;99.90;;;;;;5087711;28;20441;-63
2023/10/08 11:53:02;;;;;;;2.83;1.07;;;15.80;99.90;;;;;;5070645;28;20532;-63
2023/10/08 11:55:42;;;;;;;2.27;0.80;;;15.80;99.90;;;;;;5101917;28;20475;-64
2023/10/08 11:58:12;;;;;;;2.50;1.20;;;15.80;99.90;;;;;;5087176;28;20417;-63
2023/10/08 12:00:44;;;;;;;2.77;1.00;;;15.90;99.90;;;;;;5103238;28;20517;-62
2023/10/08 12:03:19;;;;;;;1.70;0.97;;;15.90;99.90;;;;;;5104104;28;20518;-64
2023/10/08 12:05:48;;;;;;;2.30;0.87;;;16.00;99.90;;;;;;5102958;28;20428;-64
2023/10/08 12:08:18;;;;;;;2.93;0.70;;;16.00;99.90;;;;;;5104146;28;20839;-64
2023/10/08 12:10:45;;;;;;;3.40;1.10;;;16.00;99.90;;;;;;5102971;28;20417;-64
2023/10/08 12:13:11;;;;;;;1.93;0.97;;;16.00;99.90;;;;;;5106212;28;20787;-64
2023/10/08 12:15:41;;;;;;;2.13;0.70;;;16.00;99.90;;;;;;5101798;28;20473;-64
2023/10/08 12:18:25;;;;;;;1.60;0.83;;;16.00;99.90;;;;;;5101659;28;20448;-63
2023/10/08 12:20:53;;;;;;;3.10;0.87;;;16.00;99.90;;;;;;5100028;28;20434;-64
2023/10/08 12:23:25;;;;;;;5.07;0.77;;;16.00;99.90;;;;;;5103484;28;20984;-64
2023/10/08 12:25:59;;;;;;;2.23;0.67;;;16.10;99.90;;;;;;5100445;28;20422;-64
2023/10/08 12:28:27;;;;;;;1.73;1.10;;;16.10;99.90;;;;;;5103428;28;20575;-64
2023/10/08 12:30:53;;;;;;;1.63;1.10;;;16.10;99.90;;;;;;5102864;28;20525;-64
2023/10/08 12:33:24;;;;;;;3.17;0.80;;;16.10;99.90;;;;;;5102772;28;20486;-64
2023/10/08 12:35:55;;;;;;;1.90;1.03;;;16.10;99.90;;;;;;5101230;28;21119;-64
2023/10/08 12:38:27;;;;;;;1.20;0.70;;;16.10;99.90;;;;;;5104528;28;20418;-64
2023/10/08 12:40:54;;;;;;;1.47;1.13;;;16.10;99.90;;;;;;5102443;28;20440;-64
2023/10/08 12:43:27;;;;;;;2.40;0.83;;;16.10;99.90;;;;;;5102374;28;20437;-64
2023/10/08 12:45:53;;;;;;;3.00;0.83;;;16.20;99.90;;;;;;5101880;28;20422;-63
2023/10/08 12:48:24;;;;;;;1.60;0.70;;;16.20;99.90;;;;;;5102192;28;20850;-64
2023/10/08 12:50:53;;;;;;;1.50;0.70;;;16.30;99.90;;;;;;5101165;28;20442;-63
2023/10/08 12:53:26;;;;;;;0.70;0.60;;;16.40;99.90;;;;;;5102181;28;20441;-64
2023/10/08 12:55:53;;;;;;;1.10;0.70;;;16.30;99.90;;;;;;5101451;28;20473;-64
2023/10/08 12:58:29;;;;;;;1.43;0.63;;;16.30;99.90;;;;;;5102269;28;21015;-63
2023/10/08 13:01:03;;;;;;;3.10;1.07;;;16.40;99.90;;;;;;5105180;28;20427;-64
2023/10/08 13:03:31;;;;;;;3.00;0.70;;;16.40;99.90;;;;;;5103090;28;20534;-63
2023/10/08 13:06:03;;;;;;;0.80;0.80;;;16.30;99.90;;;;;;5102719;28;20927;-64
2023/10/08 13:08:35;;;;;;;1.83;0.80;;;16.30;99.90;;;;;;5103825;28;20444;-65
2023/10/08 13:11:01;;;;;;;2.13;0.90;;;16.30;99.90;;;;;;5103842;28;20418;-64
2023/10/08 13:13:28;;;;;;;1.03;0.63;;;16.30;99.90;;;;;;5102575;28;20970;-63
2023/10/08 13:15:56;;;;;;;1.80;0.80;;;16.40;99.90;;;;;;5101990;28;20215;-64
2023/10/08 13:18:27;;;;;;;1.80;0.80;;;16.30;99.90;;;;;;5102627;28;20490;-64
2023/10/08 13:20:53;;;;;;;3.03;1.07;;;16.30;99.90;;;;;;5099827;28;20414;-64
2023/10/08 13:23:23;;;;;;;2.63;1.00;;;16.40;99.90;;;;;;5102375;28;20430;-64
2023/10/08 13:25:54;;;;;;;1.10;0.83;;;16.40;99.90;;;;;;5102543;28;20464;-64
2023/10/08 13:28:23;;;;;;;1.40;0.90;;;16.40;99.90;;;;;;5102366;28;20515;-63
2023/10/08 13:30:52;;;;;;;1.20;0.60;;;16.40;99.90;;;;;;5101964;28;20437;-63
2023/10/08 13:33:22;;;;;;;2.33;1.00;;;16.40;99.90;;;;;;5103531;28;20441;-63
2023/10/08 13:35:51;;;;;;;2.40;1.07;;;16.40;99.90;;;;;;5100145;28;21109;-63
2023/10/08 13:38:23;;;;;;;2.60;1.13;;;16.40;99.90;;;;;;5101733;28;20449;-63
2023/10/08 13:41:04;;;;;;;2.17;1.20;;;16.50;99.90;;;;;;5102733;28;20425;-63
2023/10/08 13:43:33;;;;;;;2.23;1.13;;;16.50;99.90;;;;;;5099235;28;20433;-63
2023/10/08 13:46:04;;;;;;;2.57;1.57;;;16.50;99.90;;;;;;5096828;28;20417;-63
2023/10/08 13:48:32;;;;;;;3.73;1.87;;;16.50;99.90;;;;;;5101481;28;20904;-62
2023/10/08 13:51:00;;;;;;;4.40;2.13;;;16.40;99.90;;;;;;5103822;28;20437;-63
2023/10/08 13:53:29;;;;;;;4.67;2.10;;;16.40;99.90;;;;;;5099993;28;20426;-63
2023/10/08 13:56:00;;;;;;;5.60;2.07;;;16.30;99.90;;;;;;5096553;28;20517;-63
2023/10/08 13:58:28;;;;;;;3.23;1.90;;;16.30;99.90;;;;;;5101220;28;20528;-63
2023/10/08 14:00:54;;;;;;;3.50;2.20;;;16.40;99.90;;;;;;5100982;28;20436;-63
2023/10/08 14:03:22;;;;;;;5.77;3.03;;;16.30;99.90;;;;;;5101091;28;20425;-63
2023/10/08 14:05:50;;;;;;;4.07;2.57;;;16.30;99.90;;;;;;5100646;28;20424;-63
2023/10/08 14:08:17;;;;;;;5.77;3.40;;;16.40;99.90;;;;;;5101565;28;20445;-64
2023/10/08 14:10:44;;;;;;;6.43;3.40;;;16.40;99.90;;;;;;5100750;28;20427;-63
2023/10/08 14:13:09;;;;;;;5.13;3.30;;;16.40;99.90;;;;;;5099259;28;20563;-64
2023/10/08 14:15:42;;;;;;;5.80;4.33;;;16.40;99.90;;;;;;5100014;28;20495;-63
2023/10/08 14:18:11;;;;;;;8.23;4.87;;;16.40;99.90;;;;;;5099563;28;20191;-63
2023/10/08 14:20:40;;;;;;;6.80;4.67;;;16.40;99.90;;;;;;5098483;28;21102;-62
2023/10/08 14:23:06;;;;;;;6.90;4.90;;;16.50;99.90;;;;;;5101486;28;20429;-63